Dernières infos :  

21/08/2017  Mise à jour des tableaux d'analyses décadaires
02/08/2017 Mise en ligne de la synthèse climatologique de Juillet 2017 : 
CLIQUEZ ICI
01/08/2017  Mise à jour des tableaux d'analyses décadaires, mensuelles et annuelles : rubrique climatologie

31/07/2017 Vidéo du violent orage de dimanche soir 30/07 : CLIQUEZ ICI   

Si l'entête du tableau ne s'affiche pas correctement, => actualisez la page (F5 avec Internet Explorer, Chrome...).
Utilisez l'ascenseur sur la droite des lignes du tableau pour faire défiler verticalement les jours du mois.

TABLEAU DES DONNEES COMPLETES NOAA de JUIN 2017

DATE TEMPERATURE
sous abri
TEMPARATURE 
au sol
VENT  et  Indice de Refroidissement Eolien  PRECIPITATIONS (en mm/m2)
et Intensité
PRESSION ATMOSPHERIQUE (en hPa) HUMIDITE de l'AIR RADIATIONS SOLAIRES (en W/m2)
Mini Moy. Maxi Mini Moy. Maxi Moyen Rafale I.R.E.
Minii
Précip. jour Cumul mois Intensité Maxi Mini Moy. Maxi Mini Moy. Maxi Pic maxi du jour Total jour
01/07/17 12.8° 14.7° 16.8° 12.8° 15.3° 21.1° 3.7km/h dir SO 17.7km/h dir OSO 12.8° 4.2 4.2 17.2mm/h 1012.6 1016.6 1019.6 78% 89.1% 94% 670 24 662
02/07/17 13.6° 16.6° 21.6° 13.3° 17.6° 26.7° 4.7km/h dir ONO 30.6km/h dir NO 13.3° 6.2 10.4 3.8mm/h 1019.6 1022.3 1024.4 58% 85.8% 96% 1267 40 087
03/07/17 15.4° 19.4° 25.4° 13.9° 20.6° 29.4° 4km/h dir NNE 20.9km/h dir NNE 15.4° 0.4 10.8 1021 1023 1024.6 48% 76% 95% 1039 78 388
04/07/17 12.2° 21.4° 29.7° 11.1° 21.9° 32.8° 2.9km/h dir NNE 19.3km/h dir ONO 12.2° 0 10.8 1016.1 1019 1021.2 42% 69.4% 95% 1151 88 451
05/07/17 15.9° 25.1° 33.1° 13.9° 25° 35.6° 6.6km/h dir SSE 37km/h dir SE 15.9° 0 10.8 1013.7 1015.7 1017 24% 56.9% 93% 916 88 788
06/07/17 20.2° 27° 33.7° 16.7° 27° 36.1° 9.3km/h dir SSE 35.4km/h dir SE 20.2° 0 10.8 1014.1 1015.6 1016.9 26% 41.8% 55% 884 89 611
07/07/17 21.7° 28.3° 35.5° 18.3° 27.9° 37.8° 4.8km/h dir SSE 22.5km/h dir SSE 21.7° 0 10.8 1014.6 1016.5 1017.8 31% 43.4% 72% 1113 78 187
08/07/17 18.8° 27.1° 33.8° 16.1° 27.1° 37.8° 3.7km/h dir SE 45.1km/h dir OSO 18.8° 0.4 11.2 1011.2 1014.1 1015.9 37% 62% 86% 1037 61 938
09/07/17 19.1° 22.8° 29.6° 17.2° 23° 32.8° 5.3km/h dir SO 85.3km/h dir S 18.6° 10.2 21.4 480mm/h 1008.1 1010.3 1013.7 51% 79.7% 94% 1039 35 848
10/07/17 16.4° 20.8° 25° 15.6° 21.5° 35° 3.7km/h dir SSE 32.2km/h dir SO 16.4° 7.8 29.2 78.4mm/h 1009.5 1011.6 1015 66% 83.2% 94% 1049 35 431
11/07/17 14.7° 20.8° 26.9° 13.9° 22.5° 38.3° 3.2km/h dir SE 20.9km/h dir S 14.7° 0.2 29.4 1012.8 1014.3 1015.1 55% 79.7% 96% 1266 61 374
12/07/17 16.2° 22.6° 28.6° 15° 23.5° 37.2° 6.1km/h dir ONO 32.2km/h dir OSO 16.2° 0 29.4 1013.9 1015.4 1019.2 48% 72.3% 95% 1127 56 349
13/07/17 16.9° 22.1° 27.6° 15.6° 24.2° 38.3° 6km/h dir ONO 24.1km/h dir NO 16.9° 0 29.4 1015.9 1017.8 1019.4 49% 71.4% 91% 1018 82 178
14/07/17 15.8° 21.3° 26.7° 13.3° 22.8° 36.1° 6.3km/h dir ONO 29km/h dir O 15.8° 0 29.4 1017.1 1018.2 1019.5 42% 66.6% 91% 967 77 924
15/07/17 12.1° 19.2° 25.3° 10° 21.4° 35.6° 7.1km/h dir NNE 30.6km/h dir ONO 12.1° 0 29.4 1019.5 1020.7 1022 43% 66.6% 92% 907 83 020
16/07/17 12.6° 21.2° 28.3° 11.1° 23.2° 38.9° 8.7km/h dir NNE 32.2km/h dir NO 12.6° 0 29.4 1019.3 1021.5 1023.2 45% 64.2% 89% 823 82 656
17/07/17 14.4° 23.7° 32.9° 12.8° 25.2° 43.3° 3.7km/h dir ONO 19.3km/h dir SO 14.4° 0 29.4 1015.1 1017.9 1019.9 39% 65.2% 94% 969 78 171
18/07/17 19.8° 26.8° 33.3° 16.7° 28.1° 41.7° 11.3km/h dir SSE 45.1km/h dir SSE 19.8° 0 29.4 1010.7 1013.6 1016 27% 42.1% 65% 840 81 878
19/07/17 21.9° 26.4° 32.5° 20° 27.5° 41.7° 12.6km/h dir SSE 53.1km/h dir SE 21.9° 0 29.4 1009.6 1011.5 1013.2 30% 40.9% 54% 939 66 387
20/07/17 17.7° 22.7° 28.2° 16.7° 25.1° 40.6° 6.9km/h dir ONO 30.6km/h dir NO 17.7° 1.6 31 2.2mm/h 1012.2 1012.9 1014.1 49% 68.1% 89% 1062 70 186
21/07/17 15.8° 21.8° 27.9° 13.9° 23.4° 42.2° 4.2km/h dir NO 20.9km/h dir SSE 15.8° 0 31 1009.6 1011.5 1013.5 50% 71.4% 90% 1076 53 944
22/07/17 15.7° 21.6° 28.7° 13.9° 23° 41.1° 3.5km/h dir SE 22.5km/h dir S 15.7° 1 32 1mm/h 1011.1 1012.6 1015.5 50% 78.7% 94% 1011 47 802
23/07/17 17.3° 20.9° 25.8° 15.6° 23.3° 38.3° 4km/h dir NE 29km/h dir O 17.3° 0 32 1014.2 1016.9 1019.1 45% 68.5% 94% 1093 55 495
24/07/17 16° 18.5° 22.9° 15.6° 20.3° 36.7° 6.8km/h dir ONO 27.4km/h dir O 15.8° 4.4 36.4 11mm/h 1011.4 1013.1 1015.6 57% 75.2% 93% 1310 45 647
25/07/17 14.7° 16.5° 19.9° 14.4° 17.6° 28.9° 3.5km/h dir SO 27.4km/h dir NNE 14.7° 11.4 47.8 45.2mm/h 1012.5 1014.1 1015.6 72% 88.8% 94% 1039 28 577
26/07/17 14° 19.1° 25.3° 13.3° 22.1° 40° 3.2km/h dir SE 17.7km/h dir O 14° 0.2 48 1012.5 1013.5 1014.2 50% 75.6% 96% 1065 63 616
27/07/17 17° 22.1° 27.6° 16.7° 24° 38.3° 3.1km/h dir OSO 19.3km/h dir OSO 17° 0.8 48.8 1009.7 1012 1013.8 53% 72.5% 94% 1164 52 276
28/07/17 18° 21.7° 26.2° 15.6° 24.1° 40° 5.1km/h dir ONO 20.9km/h dir ONO 18.1° 0 48.8 1011.9 1014.9 1016.9 46% 66% 80% 1069 64 172
29/07/17 13.4° 22.7° 31.5° 12.8° 25.5° 45° 3.4km/h dir SSE 20.9km/h dir ESE 13.4° 0 48.8 1011.4 1014.7 1016.9 35% 65.1% 94% 1113 72 552
30/07/17 19.2° 24.9° 32.1° 17.2° 26.3° 42.8° 7.6km/h dir SSE 72.4km/h dir ONO 17.7° 17.6 66.4 162.2mm/h 1008.1 1011.8 1014 39% 62.8% 95% 907 63 000
31/07/17 17.9° 24° 31.8° 17.8° 25.5° 42.8° 3.4km/h dir ESE 19.3km/h dir SSE 17.9° 0.6 67 1008.5 1011.6 1013.9 45% 76.5% 97% 991 52 871

RETOUR ACCUEIL


Date de création : 01/08/2017 : 22:31
Catégorie : ANNEE 2017 - MOIS PASSES - JUILLET 2017
Page lue 35 fois


Réactions à cet article

Personne n'a encore laissé de commentaire.
Soyez donc le premier !